Time;durP1;ratioP1;P1;durP2;ratioP2;P2;SDS_P1;SDS_P2;PMS_P1;PMS_P2;Temp;Humidity;BMP_temperature;BMP_pressure;BME280_temperature;BME280_humidity;BME280_pressure;Samples;Min_cycle;Max_cycle;Signal;HPM_P1;HPM_P2
2022/09/28 00:01:29;;;;;;;11.00;7.23;;;8.60;99.90;;;;;;5031282;28;20279;-57
2022/09/28 00:03:58;;;;;;;14.93;7.37;;;8.60;99.90;;;;;;5032209;28;20212;-57
2022/09/28 00:06:27;;;;;;;9.97;6.87;;;8.60;99.90;;;;;;5032280;28;20219;-58
2022/09/28 00:08:55;;;;;;;13.13;7.40;;;8.70;99.90;;;;;;5032449;28;20202;-57
2022/09/28 00:11:23;;;;;;;14.03;8.23;;;8.70;99.90;;;;;;5031574;28;20205;-58
2022/09/28 00:13:55;;;;;;;14.67;7.97;;;8.70;99.90;;;;;;5032304;28;20562;-57
2022/09/28 00:16:24;;;;;;;13.17;6.53;;;8.70;99.90;;;;;;5031734;28;20233;-57
2022/09/28 00:18:51;;;;;;;12.47;8.17;;;8.60;99.90;;;;;;5032258;28;20212;-58
2022/09/28 00:21:20;;;;;;;13.10;7.37;;;8.60;99.90;;;;;;5032062;28;20643;-58
2022/09/28 00:26:36;;;;;;;10.47;7.00;;;8.60;99.90;;;;;;5020887;28;20221;-59
2022/09/28 00:29:04;;;;;;;9.10;6.63;;;8.50;99.90;;;;;;5032431;28;20271;-56
2022/09/28 00:31:33;;;;;;;11.17;6.40;;;8.40;99.90;;;;;;5031981;28;20617;-57
2022/09/28 00:34:01;;;;;;;11.40;7.07;;;8.40;99.90;;;;;;5032044;28;20213;-58
2022/09/28 00:36:29;;;;;;;12.90;7.80;;;8.40;99.90;;;;;;5031538;28;20213;-55
2022/09/28 00:38:56;;;;;;;11.73;7.33;;;8.30;99.90;;;;;;5031880;28;20204;-57
2022/09/28 00:41:24;;;;;;;10.27;7.40;;;8.30;99.90;;;;;;5031453;28;20237;-57
2022/09/28 00:43:51;;;;;;;10.80;6.93;;;8.40;99.90;;;;;;5031878;28;20205;-57
2022/09/28 00:46:23;;;;;;;14.27;6.93;;;8.40;99.90;;;;;;5031378;28;20260;-56
2022/09/28 00:48:56;;;;;;;8.60;5.90;;;8.30;99.90;;;;;;5031778;28;20261;-56
2022/09/28 00:51:25;;;;;;;11.17;6.00;;;8.30;99.90;;;;;;5031818;28;20213;-53
2022/09/28 00:53:53;;;;;;;8.43;5.93;;;8.20;99.90;;;;;;5031768;28;20235;-58
2022/09/28 00:56:23;;;;;;;8.20;5.40;;;8.20;99.90;;;;;;5031036;28;20270;-56
2022/09/28 00:58:53;;;;;;;9.57;5.90;;;8.20;99.90;;;;;;5031654;28;20726;-56
2022/09/28 01:01:21;;;;;;;8.40;6.17;;;8.20;99.90;;;;;;5031462;28;20225;-58
2022/09/28 01:03:48;;;;;;;9.37;6.13;;;8.10;99.90;;;;;;5031707;28;20209;-57
2022/09/28 01:06:19;;;;;;;9.50;6.23;;;8.10;99.90;;;;;;5030555;28;20209;-58
2022/09/28 01:08:49;;;;;;;9.63;6.93;;;8.10;99.90;;;;;;5031558;28;20578;-58
2022/09/28 01:11:16;;;;;;;9.40;7.10;;;8.20;99.90;;;;;;5031746;28;20205;-57
2022/09/28 01:13:43;;;;;;;11.17;7.53;;;8.10;99.90;;;;;;5034246;28;20230;-57
2022/09/28 01:16:18;;;;;;;11.57;7.27;;;8.10;99.90;;;;;;5035193;28;20590;-57
2022/09/28 01:18:53;;;;;;;13.53;8.10;;;8.20;99.90;;;;;;5035479;28;20258;-58
2022/09/28 01:21:22;;;;;;;10.10;7.47;;;8.20;99.90;;;;;;5035444;28;20239;-57
2022/09/28 01:24:08;;;;;;;12.63;8.37;;;8.20;99.90;;;;;;5035593;28;20221;-58
2022/09/28 01:26:51;;;;;;;11.20;8.20;;;8.20;99.90;;;;;;5035028;28;20599;-57
2022/09/28 01:29:24;;;;;;;15.67;7.30;;;8.20;99.90;;;;;;5035218;28;20633;-57
2022/09/28 01:31:56;;;;;;;14.60;8.20;;;8.10;99.90;;;;;;5035336;28;20234;-57
2022/09/28 01:34:29;;;;;;;13.37;8.07;;;8.10;99.90;;;;;;5035137;28;20776;-58
2022/09/28 01:37:01;;;;;;;12.97;8.33;;;8.10;99.90;;;;;;5034835;28;20227;-57
2022/09/28 01:39:33;;;;;;;13.87;8.97;;;8.10;99.90;;;;;;5035117;28;20632;-56
2022/09/28 01:42:08;;;;;;;12.63;8.23;;;8.10;99.90;;;;;;5035246;28;20226;-57
2022/09/28 01:44:40;;;;;;;13.80;8.97;;;8.10;99.90;;;;;;5035440;28;20212;-56
2022/09/28 01:47:09;;;;;;;12.43;8.87;;;8.10;99.90;;;;;;5034683;28;20225;-54
2022/09/28 01:49:39;;;;;;;11.27;8.47;;;8.10;99.90;;;;;;5035008;28;20220;-56
2022/09/28 01:52:14;;;;;;;13.43;8.47;;;8.00;99.90;;;;;;5034762;28;20211;-54
2022/09/28 01:54:45;;;;;;;12.63;9.17;;;8.00;99.90;;;;;;5034916;28;20771;-57
2022/09/28 01:57:18;;;;;;;12.63;9.13;;;8.00;99.90;;;;;;5036094;28;20732;-57
2022/09/28 01:59:52;;;;;;;15.23;10.43;;;8.00;99.90;;;;;;5034997;28;20221;-57
2022/09/28 02:02:23;;;;;;;15.60;9.67;;;8.00;99.90;;;;;;5034474;28;20229;-54
2022/09/28 02:04:55;;;;;;;14.87;9.83;;;8.00;99.90;;;;;;5034859;28;20193;-53
2022/09/28 02:07:26;;;;;;;15.73;10.27;;;8.10;99.90;;;;;;5034549;28;20283;-55
2022/09/28 02:09:58;;;;;;;14.73;9.40;;;8.10;99.90;;;;;;5034408;28;20271;-53
2022/09/28 02:12:35;;;;;;;17.70;10.33;;;8.10;99.90;;;;;;5034460;28;20275;-55
2022/09/28 02:15:10;;;;;;;16.03;10.43;;;8.00;99.90;;;;;;5034408;28;20209;-57
2022/09/28 02:17:37;;;;;;;18.57;10.80;;;8.00;99.90;;;;;;5033975;28;20270;-56
2022/09/28 02:20:05;;;;;;;14.83;10.90;;;8.00;99.90;;;;;;5034243;28;20213;-56
2022/09/28 02:22:36;;;;;;;14.50;11.00;;;8.00;99.90;;;;;;5034302;28;20259;-57
2022/09/28 02:25:08;;;;;;;20.47;11.67;;;8.00;99.90;;;;;;5033273;28;20209;-54
2022/09/28 02:27:41;;;;;;;21.83;11.63;;;8.00;99.90;;;;;;5033546;28;20237;-56
2022/09/28 02:30:09;;;;;;;19.30;12.13;;;8.00;99.90;;;;;;5034310;28;20647;-57
2022/09/28 02:32:41;;;;;;;18.90;12.03;;;8.10;99.90;;;;;;5034157;28;20205;-56
2022/09/28 02:35:09;;;;;;;17.90;11.67;;;8.10;99.90;;;;;;5034047;28;20210;-55
2022/09/28 02:37:36;;;;;;;18.07;11.93;;;8.10;99.90;;;;;;5033563;28;20263;-57
2022/09/28 02:40:03;;;;;;;21.97;13.50;;;8.10;99.90;;;;;;5033528;28;20700;-57
2022/09/28 02:42:38;;;;;;;19.87;13.40;;;8.10;99.90;;;;;;5033705;28;20287;-57
2022/09/28 02:45:15;;;;;;;22.27;13.00;;;8.00;99.90;;;;;;5033900;28;20270;-58
2022/09/28 02:47:56;;;;;;;20.93;13.27;;;8.00;99.90;;;;;;5033563;28;20605;-55
2022/09/28 02:50:33;;;;;;;23.60;14.20;;;8.00;99.90;;;;;;5033645;28;20214;-57
2022/09/28 02:53:20;;;;;;;23.83;14.57;;;7.90;99.90;;;;;;5033911;28;20295;-57
2022/09/28 02:56:01;;;;;;;22.57;14.47;;;7.90;99.90;;;;;;5033738;28;20917;-57
2022/09/28 02:58:39;;;;;;;23.37;14.17;;;7.90;99.90;;;;;;5033601;28;20375;-58
2022/09/28 03:01:15;;;;;;;26.13;14.10;;;7.90;99.90;;;;;;5033728;28;20212;-56
2022/09/28 03:03:48;;;;;;;26.40;16.03;;;7.90;99.90;;;;;;5033523;28;20212;-58
2022/09/28 03:06:22;;;;;;;25.37;15.17;;;8.00;99.90;;;;;;5033417;28;20274;-57
2022/09/28 03:08:54;;;;;;;25.80;16.03;;;8.00;99.90;;;;;;5033481;28;20208;-57
2022/09/28 03:11:24;;;;;;;25.50;15.50;;;8.00;99.90;;;;;;5033309;28;20263;-57
2022/09/28 03:13:53;;;;;;;26.57;16.67;;;8.00;99.90;;;;;;5033719;28;20217;-57
2022/09/28 03:16:20;;;;;;;30.30;16.60;;;8.00;99.90;;;;;;5033075;28;20680;-57
2022/09/28 03:18:47;;;;;;;28.73;17.77;;;8.00;99.90;;;;;;5033168;28;20203;-57
2022/09/28 03:21:15;;;;;;;29.10;16.40;;;8.00;99.90;;;;;;5033127;28;20259;-58
2022/09/28 03:23:43;;;;;;;30.53;17.70;;;7.90;99.90;;;;;;5033093;28;20212;-57
2022/09/28 03:26:11;;;;;;;29.90;18.37;;;8.00;99.90;;;;;;5033325;28;20216;-57
2022/09/28 03:28:37;;;;;;;34.17;18.47;;;8.00;99.90;;;;;;5033013;28;20363;-55
2022/09/28 03:31:05;;;;;;;36.73;21.43;;;8.00;99.90;;;;;;5032966;28;20678;-57
2022/09/28 03:33:32;;;;;;;33.27;19.17;;;7.90;99.90;;;;;;5032774;28;20260;-57
2022/09/28 03:35:59;;;;;;;37.50;21.20;;;7.80;99.90;;;;;;5032538;28;20240;-57
2022/09/28 03:38:25;;;;;;;39.50;21.00;;;7.90;99.90;;;;;;5032578;28;20733;-58
2022/09/28 03:40:53;;;;;;;39.77;22.37;;;7.90;99.90;;;;;;5032839;28;20207;-55
2022/09/28 03:43:20;;;;;;;35.83;21.13;;;7.80;99.90;;;;;;5032819;28;20292;-58
2022/09/28 03:45:52;;;;;;;38.50;21.20;;;7.90;99.90;;;;;;5032514;28;20282;-58
2022/09/28 03:48:23;;;;;;;41.03;22.03;;;7.90;99.90;;;;;;5032457;28;20224;-58
2022/09/28 03:50:53;;;;;;;37.47;22.00;;;7.90;99.90;;;;;;5032589;28;20299;-58
2022/09/28 03:53:19;;;;;;;37.40;22.83;;;7.80;99.90;;;;;;5033185;28;20209;-58
2022/09/28 03:55:46;;;;;;;40.00;22.20;;;7.90;99.90;;;;;;5032707;28;20222;-56
2022/09/28 03:58:12;;;;;;;39.77;21.37;;;7.90;99.90;;;;;;5032342;28;20228;-58
2022/09/28 04:00:39;;;;;;;38.47;21.67;;;7.90;99.90;;;;;;5032408;28;20205;-57
2022/09/28 04:03:06;;;;;;;36.90;21.10;;;7.90;99.90;;;;;;5032075;28;20617;-57
2022/09/28 04:05:34;;;;;;;37.30;20.57;;;8.00;99.90;;;;;;5032355;28;20264;-56
2022/09/28 04:08:01;;;;;;;37.80;21.53;;;8.00;99.90;;;;;;5032320;28;20324;-58
2022/09/28 04:10:27;;;;;;;38.77;22.60;;;8.10;99.90;;;;;;5031804;28;20587;-57
2022/09/28 04:12:55;;;;;;;43.87;23.33;;;8.10;99.90;;;;;;5032337;28;20647;-58
2022/09/28 04:15:22;;;;;;;45.13;23.60;;;8.00;99.90;;;;;;5032163;28;20210;-57
2022/09/28 04:17:49;;;;;;;40.50;22.50;;;8.00;99.90;;;;;;5031630;28;20226;-56
2022/09/28 04:20:15;;;;;;;41.70;22.67;;;8.00;99.90;;;;;;5032186;28;20285;-57
2022/09/28 04:22:44;;;;;;;40.87;21.83;;;8.00;99.90;;;;;;5032240;28;20224;-54
2022/09/28 04:25:11;;;;;;;40.13;22.17;;;8.00;99.90;;;;;;5032825;28;20255;-57
2022/09/28 04:30:22;;;;;;;40.43;21.77;;;8.00;99.90;;;;;;5032318;28;20577;-56
2022/09/28 04:32:48;;;;;;;35.30;20.67;;;8.00;99.90;;;;;;5031749;28;20641;-58
2022/09/28 04:35:15;;;;;;;37.37;21.37;;;8.00;99.90;;;;;;5031250;28;20205;-57
2022/09/28 04:37:43;;;;;;;37.40;20.97;;;8.00;99.90;;;;;;5030070;28;20231;-57
2022/09/28 04:40:10;;;;;;;36.97;20.53;;;8.00;99.90;;;;;;5031183;28;20213;-58
2022/09/28 04:42:37;;;;;;;34.93;20.97;;;8.00;99.90;;;;;;5031612;28;20286;-57
2022/09/28 04:45:04;;;;;;;31.80;18.10;;;8.00;99.90;;;;;;5031020;28;20294;-58
2022/09/28 04:47:31;;;;;;;40.17;21.00;;;7.90;99.90;;;;;;5030332;28;20235;-57
2022/09/28 04:49:57;;;;;;;34.33;19.83;;;7.80;99.90;;;;;;5031477;28;20208;-57
2022/09/28 04:52:25;;;;;;;35.70;20.03;;;7.80;99.90;;;;;;5031767;28;20259;-57
2022/09/28 04:54:53;;;;;;;36.97;19.97;;;7.80;99.90;;;;;;5031360;28;20288;-58
2022/09/28 04:57:20;;;;;;;37.03;21.37;;;7.80;99.90;;;;;;5031265;28;20281;-58
2022/09/28 04:59:46;;;;;;;41.50;20.97;;;7.80;99.90;;;;;;5031500;28;20214;-58
2022/09/28 05:02:13;;;;;;;31.33;19.83;;;7.90;99.90;;;;;;5031103;28;20750;-58
2022/09/28 05:04:41;;;;;;;34.53;20.27;;;7.90;99.90;;;;;;5031694;28;20216;-58
2022/09/28 05:07:08;;;;;;;35.60;20.40;;;7.90;99.90;;;;;;5030529;28;20766;-57
2022/09/28 05:09:34;;;;;;;32.13;18.93;;;7.90;99.90;;;;;;5031468;28;20252;-57
2022/09/28 05:12:02;;;;;;;36.40;20.50;;;7.90;99.90;;;;;;5030802;28;20261;-58
2022/09/28 05:14:29;;;;;;;30.73;19.23;;;7.90;99.90;;;;;;5031362;28;20205;-58
2022/09/28 05:16:55;;;;;;;33.93;19.33;;;7.90;99.90;;;;;;5030867;28;20232;-56
2022/09/28 05:19:22;;;;;;;32.67;18.10;;;7.90;99.90;;;;;;5031393;28;20220;-63
2022/09/28 05:21:49;;;;;;;33.47;20.00;;;7.90;99.90;;;;;;5030918;28;20738;-59
2022/09/28 05:24:15;;;;;;;33.30;19.07;;;7.90;99.90;;;;;;5031351;28;20213;-59
2022/09/28 05:26:42;;;;;;;32.93;20.50;;;7.90;99.90;;;;;;5030558;28;20229;-58
2022/09/28 05:29:10;;;;;;;29.03;19.13;;;7.90;99.90;;;;;;5031150;28;20278;-59
2022/09/28 05:31:36;;;;;;;36.63;20.40;;;8.00;99.90;;;;;;5030909;28;20259;-59
2022/09/28 05:34:03;;;;;;;33.50;20.20;;;7.90;99.90;;;;;;5030907;28;20209;-59
2022/09/28 05:36:31;;;;;;;35.77;21.73;;;8.00;99.90;;;;;;5030819;28;20213;-59
2022/09/28 05:38:57;;;;;;;35.20;21.77;;;7.90;99.90;;;;;;5039840;28;20210;-59
2022/09/28 05:41:24;;;;;;;36.20;22.10;;;7.90;99.90;;;;;;5030633;28;20679;-59
2022/09/28 05:43:51;;;;;;;36.07;21.27;;;7.90;99.90;;;;;;5030784;28;20372;-60
2022/09/28 05:46:20;;;;;;;36.67;21.43;;;7.90;99.90;;;;;;5030499;28;20225;-58
2022/09/28 05:48:47;;;;;;;38.83;21.90;;;8.00;99.90;;;;;;5030487;28;20295;-57
2022/09/28 05:51:14;;;;;;;38.07;22.27;;;7.90;99.90;;;;;;5030964;28;20633;-59
2022/09/28 05:53:40;;;;;;;39.33;22.57;;;8.00;99.90;;;;;;5030305;28;20634;-60
2022/09/28 05:56:07;;;;;;;36.43;21.43;;;8.00;99.90;;;;;;5031274;28;20209;-60
2022/09/28 05:58:34;;;;;;;38.13;22.93;;;8.10;99.90;;;;;;5030915;28;20232;-60
2022/09/28 06:01:00;;;;;;;37.77;22.30;;;8.10;99.90;;;;;;5033432;28;20209;-59
2022/09/28 06:03:28;;;;;;;42.93;23.07;;;8.10;99.90;;;;;;5034679;28;20229;-58
2022/09/28 06:05:55;;;;;;;36.37;22.33;;;8.20;99.90;;;;;;5033872;28;20209;-58
2022/09/28 06:08:22;;;;;;;38.03;22.37;;;8.20;99.90;;;;;;5034381;28;20652;-60
2022/09/28 06:10:48;;;;;;;33.37;21.43;;;8.20;99.90;;;;;;5033647;28;20264;-61
2022/09/28 06:13:15;;;;;;;34.23;21.30;;;8.20;99.90;;;;;;5034365;28;20213;-60
2022/09/28 06:15:42;;;;;;;39.77;22.27;;;8.20;99.90;;;;;;5033764;28;20636;-58
2022/09/28 06:18:12;;;;;;;45.57;23.67;;;8.30;99.90;;;;;;5034170;28;20275;-58
2022/09/28 06:20:42;;;;;;;40.50;23.73;;;8.20;99.90;;;;;;5033712;28;20680;-58
2022/09/28 06:23:08;;;;;;;38.27;22.50;;;8.20;99.90;;;;;;5034036;28;20233;-60
2022/09/28 06:25:35;;;;;;;38.23;22.73;;;8.20;99.90;;;;;;5034240;28;20293;-56
2022/09/28 06:28:04;;;;;;;40.10;24.53;;;8.20;99.90;;;;;;5033599;28;20378;-59
2022/09/28 06:30:32;;;;;;;39.03;23.30;;;8.30;99.90;;;;;;5033734;28;20209;-60
2022/09/28 06:33:01;;;;;;;36.23;22.97;;;8.30;99.90;;;;;;5033512;28;20268;-58
2022/09/28 06:35:30;;;;;;;38.93;23.67;;;8.30;99.90;;;;;;5033512;28;20210;-58
2022/09/28 06:37:58;;;;;;;38.07;23.53;;;8.40;99.90;;;;;;5033214;28;20746;-59
2022/09/28 06:40:26;;;;;;;40.70;23.10;;;8.40;99.90;;;;;;5033756;28;20244;-59
2022/09/28 06:42:56;;;;;;;39.87;23.30;;;8.40;99.90;;;;;;5033186;28;20594;-53
2022/09/28 06:45:24;;;;;;;35.97;21.37;;;8.40;99.90;;;;;;5033472;28;20213;-56
2022/09/28 06:47:55;;;;;;;39.90;23.27;;;8.30;99.90;;;;;;5032872;28;20237;-57
2022/09/28 06:50:22;;;;;;;38.07;22.03;;;8.30;99.90;;;;;;5033413;28;20228;-58
2022/09/28 06:52:51;;;;;;;41.10;24.07;;;8.40;99.90;;;;;;5032966;28;20206;-58
2022/09/28 06:55:19;;;;;;;39.53;22.60;;;8.50;99.90;;;;;;5033127;28;20216;-62
2022/09/28 06:57:46;;;;;;;40.17;23.40;;;8.40;99.90;;;;;;5032835;28;20280;-60
2022/09/28 07:00:14;;;;;;;41.40;22.90;;;8.50;99.90;;;;;;5033031;28;20266;-59
2022/09/28 07:02:40;;;;;;;37.13;22.50;;;8.40;99.90;;;;;;5032928;28;20214;-62
2022/09/28 07:05:09;;;;;;;40.87;23.63;;;8.40;99.90;;;;;;5033116;28;20274;-60
2022/09/28 07:07:35;;;;;;;40.83;22.73;;;8.40;99.90;;;;;;5033107;28;20234;-62
2022/09/28 07:10:02;;;;;;;39.07;23.30;;;8.40;99.90;;;;;;5032480;28;20213;-61
2022/09/28 07:12:31;;;;;;;41.00;24.03;;;8.40;99.90;;;;;;5032936;28;20220;-62
2022/09/28 07:14:57;;;;;;;93.60;30.07;;;8.40;99.90;;;;;;5032537;28;20216;-62
2022/09/28 07:17:24;;;;;;;44.57;25.87;;;8.30;99.90;;;;;;5032713;28;20237;-60
2022/09/28 07:19:51;;;;;;;38.10;21.90;;;8.30;99.90;;;;;;5032618;28;20641;-58
2022/09/28 07:22:19;;;;;;;40.53;23.67;;;8.40;99.90;;;;;;5032660;28;20731;-59
2022/09/28 07:24:47;;;;;;;37.97;22.70;;;8.30;99.90;;;;;;5032442;28;20647;-59
2022/09/28 07:27:14;;;;;;;43.27;24.53;;;8.40;99.90;;;;;;5032941;28;20268;-58
2022/09/28 07:29:41;;;;;;;41.73;24.37;;;8.20;99.90;;;;;;5032552;28;20676;-58
2022/09/28 07:32:08;;;;;;;44.90;25.23;;;8.20;99.90;;;;;;5032400;28;20240;-57
2022/09/28 07:34:38;;;;;;;48.20;26.33;;;8.30;99.90;;;;;;5032767;28;20198;-57
2022/09/28 07:37:07;;;;;;;56.03;27.93;;;8.40;99.90;;;;;;5032621;28;20223;-55
2022/09/28 07:41:10;;;;;;;47.57;26.07;;;8.40;99.90;;;;;;5031737;28;20205;-53
2022/09/28 07:42:20;;;;;;;45.60;26.20;;;8.30;99.90;;;;;;5032062;28;20684;-59
2022/09/28 07:44:48;;;;;;;43.60;26.07;;;8.30;99.90;;;;;;5032206;28;20233;-59
2022/09/28 07:47:15;;;;;;;46.17;25.07;;;8.30;99.90;;;;;;5032037;28;20249;-59
2022/09/28 07:49:41;;;;;;;46.50;27.77;;;8.40;99.90;;;;;;5032583;28;20217;-60
2022/09/28 07:52:09;;;;;;;50.90;28.40;;;8.30;99.90;;;;;;5031978;28;20264;-58
2022/09/28 07:54:38;;;;;;;47.43;28.07;;;8.40;99.90;;;;;;5032075;28;20208;-57
2022/09/28 07:57:06;;;;;;;45.23;25.63;;;8.40;99.90;;;;;;5031102;28;20720;-58
2022/09/28 07:59:33;;;;;;;50.70;27.87;;;8.40;99.90;;;;;;5032270;28;20217;-62
2022/09/28 08:02:01;;;;;;;47.10;26.57;;;8.40;99.90;;;;;;5021103;28;20267;-62
2022/09/28 08:04:28;;;;;;;45.70;25.93;;;8.40;99.90;;;;;;5029869;28;20276;-60
2022/09/28 08:06:55;;;;;;;45.80;26.43;;;8.40;99.90;;;;;;5031424;28;20269;-62
2022/09/28 08:09:22;;;;;;;49.97;27.70;;;8.40;99.90;;;;;;5030955;28;20270;-62
2022/09/28 08:11:49;;;;;;;48.80;27.63;;;8.50;99.90;;;;;;5031662;28;20692;-61
2022/09/28 08:14:16;;;;;;;50.70;27.50;;;8.50;99.90;;;;;;5031136;28;20582;-62
2022/09/28 08:16:44;;;;;;;51.37;27.87;;;8.50;99.90;;;;;;5027463;28;20296;-60
2022/09/28 08:19:12;;;;;;;51.43;27.67;;;8.60;99.90;;;;;;5031318;28;20580;-59
2022/09/28 08:21:44;;;;;;;50.70;27.90;;;8.60;99.90;;;;;;5030699;28;20204;-56
2022/09/28 08:24:11;;;;;;;44.43;27.10;;;8.60;99.90;;;;;;5030798;28;20705;-60
2022/09/28 08:26:37;;;;;;;47.83;28.57;;;8.70;99.90;;;;;;5030724;28;20222;-58
2022/09/28 08:29:05;;;;;;;53.53;28.97;;;8.80;99.90;;;;;;5031770;28;20210;-61
2022/09/28 08:31:31;;;;;;;53.03;29.23;;;8.80;99.90;;;;;;5030709;28;20633;-60
2022/09/28 08:33:58;;;;;;;52.40;29.17;;;8.80;99.90;;;;;;5031099;28;20206;-60
2022/09/28 08:36:27;;;;;;;50.73;28.53;;;8.80;99.90;;;;;;5030800;28;20206;-60
2022/09/28 08:38:54;;;;;;;53.83;28.70;;;8.90;99.90;;;;;;5030741;28;20242;-57
2022/09/28 08:41:32;;;;;;;46.23;29.27;;;9.00;99.90;;;;;;5031300;28;20201;-60
2022/09/28 08:44:14;;;;;;;49.60;28.43;;;8.90;99.90;;;;;;5030414;28;20236;-57
2022/09/28 08:46:43;;;;;;;50.43;27.07;;;8.90;99.90;;;;;;5030751;28;20229;-58
2022/09/28 08:49:16;;;;;;;47.97;28.23;;;9.00;99.90;;;;;;5030527;28;20206;-59
2022/09/28 08:51:49;;;;;;;49.73;28.23;;;9.10;99.90;;;;;;5030786;28;20210;-59
2022/09/28 08:54:28;;;;;;;48.77;27.93;;;9.10;99.90;;;;;;5030446;28;20560;-60
2022/09/28 08:56:59;;;;;;;48.40;29.73;;;9.30;99.90;;;;;;5031728;28;20631;-61
2022/09/28 08:59:31;;;;;;;51.43;29.60;;;9.50;99.90;;;;;;5031669;28;20260;-60
2022/09/28 09:02:02;;;;;;;47.67;28.43;;;9.50;99.90;;;;;;5031320;28;20198;-61
2022/09/28 09:04:29;;;;;;;48.70;29.00;;;9.60;99.90;;;;;;5030946;28;20288;-58
2022/09/28 09:07:30;;;;;;;43.40;27.03;;;9.60;99.90;;;;;;5030559;28;20267;-60
2022/09/28 09:10:10;;;;;;;41.30;26.40;;;9.60;99.90;;;;;;5031218;28;20233;-57
2022/09/28 09:12:44;;;;;;;42.93;26.00;;;9.60;99.90;;;;;;5030632;28;20210;-58
2022/09/28 09:15:27;;;;;;;41.07;25.37;;;9.60;99.90;;;;;;5030779;28;20248;-52
2022/09/28 09:18:06;;;;;;;39.40;25.47;;;9.60;99.90;;;;;;5030129;28;20245;-56
2022/09/28 09:20:40;;;;;;;43.57;25.23;;;9.50;99.90;;;;;;5029821;28;20210;-57
2022/09/28 09:23:17;;;;;;;37.40;24.27;;;9.50;99.90;;;;;;5023138;28;20206;-57
2022/09/28 09:25:49;;;;;;;39.70;24.43;;;9.40;99.90;;;;;;5030876;28;20256;-59
2022/09/28 09:28:50;;;;;;;38.27;23.73;;;9.40;99.90;;;;;;5029780;28;20239;-58
2022/09/28 09:31:31;;;;;;;39.77;24.47;;;9.60;99.90;;;;;;5030576;28;20202;-58
2022/09/28 09:34:32;;;;;;;39.23;23.67;;;9.70;99.90;;;;;;5031344;28;20202;-56
2022/09/28 09:37:15;;;;;;;38.00;23.07;;;10.00;99.90;;;;;;5034101;28;20233;-52
2022/09/28 09:40:04;;;;;;;35.50;23.03;;;10.20;99.90;;;;;;5034159;28;20202;-58
2022/09/28 09:42:50;;;;;;;31.33;19.97;;;10.30;99.90;;;;;;5034622;28;20206;-58
2022/09/28 09:45:42;;;;;;;30.73;19.93;;;10.20;99.90;;;;;;5033510;28;20229;-54
2022/09/28 09:48:15;;;;;;;29.80;19.57;;;10.20;99.90;;;;;;5031662;28;20228;-52
2022/09/28 09:50:47;;;;;;;27.40;19.07;;;10.10;99.90;;;;;;5033560;28;20210;-57
2022/09/28 09:53:21;;;;;;;27.10;17.87;;;9.80;99.90;;;;;;5034009;28;20265;-57
2022/09/28 09:55:56;;;;;;;25.60;18.13;;;9.70;99.90;;;;;;5034063;28;20297;-57
2022/09/28 09:58:27;;;;;;;27.90;18.83;;;9.60;99.90;;;;;;5033925;28;20226;-56
2022/09/28 10:00:58;;;;;;;31.47;19.67;;;9.60;99.90;;;;;;5033892;28;20642;-60
2022/09/28 10:03:28;;;;;;;29.93;19.53;;;9.70;99.90;;;;;;5033977;28;20804;-60
2022/09/28 10:05:58;;;;;;;28.63;18.97;;;9.70;99.90;;;;;;5033599;28;20695;-60
2022/09/28 10:08:28;;;;;;;33.27;18.67;;;9.70;99.90;;;;;;5033348;28;20735;-58
2022/09/28 10:11:07;;;;;;;26.10;18.43;;;9.80;99.90;;;;;;5034172;28;20265;-59
2022/09/28 10:13:33;;;;;;;24.80;17.60;;;9.90;99.90;;;;;;5032949;28;20206;-58
2022/09/28 10:16:01;;;;;;;26.80;17.90;;;10.00;99.90;;;;;;5033776;28;20268;-59
2022/09/28 10:18:28;;;;;;;24.20;17.73;;;10.00;99.90;;;;;;5032871;28;20227;-59
2022/09/28 10:20:55;;;;;;;28.77;18.20;;;10.10;99.90;;;;;;5033880;28;20576;-62
2022/09/28 10:23:26;;;;;;;26.60;18.93;;;10.30;99.90;;;;;;5033111;28;20211;-62
2022/09/28 10:25:59;;;;;;;22.40;16.93;;;10.60;99.90;;;;;;5033725;28;20552;-62
2022/09/28 10:28:33;;;;;;;26.93;17.27;;;10.60;99.90;;;;;;5033354;28;20569;-65
2022/09/28 10:31:00;;;;;;;22.13;16.60;;;10.80;99.90;;;;;;5032959;28;20684;-59
2022/09/28 10:33:30;;;;;;;20.83;14.70;;;11.00;99.90;;;;;;5033064;28;20202;-56
2022/09/28 10:35:58;;;;;;;21.77;15.70;;;11.10;99.90;;;;;;5032936;28;20242;-55
2022/09/28 10:38:25;;;;;;;20.27;15.03;;;10.90;96.20;;;;;;5033176;28;20929;-59
2022/09/28 10:40:54;;;;;;;21.23;15.87;;;10.80;99.90;;;;;;5030224;28;20202;-59
2022/09/28 10:43:26;;;;;;;18.23;15.47;;;10.80;99.90;;;;;;5031397;28;20230;-59
2022/09/28 10:46:01;;;;;;;21.00;14.57;;;10.90;99.90;;;;;;5031458;28;20230;-60
2022/09/28 10:48:31;;;;;;;19.70;14.53;;;10.90;99.90;;;;;;5032884;28;20250;-59
2022/09/28 10:51:00;;;;;;;19.73;14.47;;;10.90;98.30;;;;;;5032901;28;20210;-57
2022/09/28 10:53:27;;;;;;;18.27;14.20;;;11.00;99.90;;;;;;5032410;28;20280;-56
2022/09/28 10:56:00;;;;;;;17.40;14.10;;;11.20;99.90;;;;;;5032609;28;20346;-50
2022/09/28 10:58:33;;;;;;;16.17;13.13;;;11.30;99.90;;;;;;5032273;28;20306;-58
2022/09/28 11:01:04;;;;;;;14.03;12.00;;;11.20;97.50;;;;;;5032887;28;20210;-57
2022/09/28 11:03:32;;;;;;;16.63;12.63;;;11.40;99.90;;;;;;5031902;28;20626;-60
2022/09/28 11:06:01;;;;;;;14.37;12.03;;;11.40;99.90;;;;;;5032621;28;20295;-61
2022/09/28 11:08:32;;;;;;;12.57;10.13;;;11.40;97.60;;;;;;5031987;28;20230;-61
2022/09/28 11:11:08;;;;;;;14.10;10.50;;;11.50;97.40;;;;;;5032758;28;20206;-62
2022/09/28 11:13:45;;;;;;;13.30;9.97;;;11.60;99.90;;;;;;5031849;28;20206;-62
2022/09/28 11:16:22;;;;;;;10.97;8.97;;;11.50;98.70;;;;;;5032384;28;20554;-62
2022/09/28 11:18:49;;;;;;;10.67;8.70;;;11.50;91.90;;;;;;5031971;28;20252;-62
2022/09/28 11:21:17;;;;;;;13.47;10.03;;;11.70;99.90;;;;;;5032473;28;20267;-63
2022/09/28 11:23:56;;;;;;;10.47;8.53;;;11.70;99.90;;;;;;5032304;28;20223;-57
2022/09/28 11:26:23;;;;;;;11.13;8.77;;;11.70;99.90;;;;;;5031357;28;20208;-60
2022/09/28 11:28:52;;;;;;;10.73;9.10;;;11.80;96.50;;;;;;5032244;28;20720;-56
2022/09/28 11:31:26;;;;;;;13.80;9.27;;;11.90;96.60;;;;;;5031625;28;20202;-59
2022/09/28 11:34:02;;;;;;;9.87;8.87;;;11.90;74.50;;;;;;5032085;28;20688;-60
2022/09/28 11:36:40;;;;;;;11.00;8.27;;;12.10;80.20;;;;;;5031636;28;20213;-60
2022/09/28 11:39:11;;;;;;;9.23;8.20;;;12.20;90.30;;;;;;5032352;28;20213;-58
2022/09/28 11:41:48;;;;;;;10.10;7.83;;;12.30;62.20;;;;;;5031647;28;20206;-58
2022/09/28 11:44:37;;;;;;;11.33;7.50;;;12.40;68.40;;;;;;5031545;28;20640;-61
2022/09/28 11:47:35;;;;;;;10.33;6.03;;;12.80;91.20;;;;;;5031426;28;20241;-60
2022/09/28 11:50:06;;;;;;;8.47;6.37;;;12.90;1.00;;;;;;4995994;28;20739;-61
2022/09/28 11:52:39;;;;;;;6.67;5.97;;;13.00;1.00;;;;;;5030679;28;20202;-61
2022/09/28 11:55:14;;;;;;;6.87;5.87;;;12.90;1.00;;;;;;5031639;28;20206;-60
2022/09/28 11:57:44;;;;;;;7.30;5.77;;;12.90;28.10;;;;;;5031303;28;20229;-61
2022/09/28 12:00:16;;;;;;;8.20;6.00;;;13.10;63.50;;;;;;5031512;28;20206;-62
2022/09/28 12:02:48;;;;;;;6.90;6.13;;;13.20;44.00;;;;;;5031294;28;20629;-61
2022/09/28 12:05:21;;;;;;;7.93;6.07;;;13.00;20.50;;;;;;5021353;28;20303;-59
2022/09/28 12:07:53;;;;;;;7.03;6.30;;;12.80;35.80;;;;;;5031252;28;20883;-59
2022/09/28 12:10:26;;;;;;;7.70;6.03;;;13.00;80.30;;;;;;5030787;28;20673;-59
2022/09/28 12:12:59;;;;;;;11.77;5.80;;;13.20;40.10;;;;;;5031196;28;20633;-59
2022/09/28 12:15:38;;;;;;;7.13;5.90;;;13.30;37.00;;;;;;5031468;28;20206;-57
2022/09/28 12:18:10;;;;;;;7.20;6.50;;;13.50;60.90;;;;;;5031736;28;20226;-58
2022/09/28 12:20:43;;;;;;;7.10;6.03;;;13.50;22.40;;;;;;5031005;28;20256;-56
2022/09/28 12:23:15;;;;;;;8.03;5.63;;;13.40;29.30;;;;;;5031347;28;20280;-60
2022/09/28 12:25:46;;;;;;;6.47;5.13;;;13.20;24.40;;;;;;5030986;28;20277;-62
2022/09/28 12:28:21;;;;;;;7.80;6.10;;;13.10;8.60;;;;;;5031178;28;20230;-61
2022/09/28 12:30:51;;;;;;;8.80;6.60;;;12.60;11.80;;;;;;5031063;28;20734;-61
2022/09/28 12:33:17;;;;;;;9.73;7.47;;;12.40;41.60;;;;;;5030614;28;20202;-59
2022/09/28 12:36:00;;;;;;;8.30;7.47;;;12.20;41.50;;;;;;5031212;28;20260;-60
2022/09/28 12:38:41;;;;;;;10.63;7.67;;;12.10;46.80;;;;;;5030587;28;20284;-61
2022/09/28 12:41:23;;;;;;;8.23;7.30;;;12.00;52.80;;;;;;5031514;28;20210;-58
2022/09/28 12:44:09;;;;;;;10.20;6.97;;;11.90;55.10;;;;;;5030850;28;20210;-59
2022/09/28 12:46:54;;;;;;;9.07;7.00;;;11.90;62.80;;;;;;5030870;28;20256;-59
2022/09/28 12:49:34;;;;;;;8.93;7.10;;;11.90;92.60;;;;;;5031035;28;20231;-59
2022/09/28 12:52:08;;;;;;;7.97;7.10;;;11.80;78.80;;;;;;5031020;28;20260;-60
2022/09/28 12:55:05;;;;;;;7.60;6.33;;;11.90;85.20;;;;;;5030158;28;20232;-60
2022/09/28 12:57:43;;;;;;;8.77;6.67;;;11.90;90.60;;;;;;5030766;28;20234;-62
2022/09/28 13:00:12;;;;;;;8.27;6.13;;;11.90;82.70;;;;;;5030470;28;20210;-60
2022/09/28 13:03:08;;;;;;;6.87;6.17;;;12.00;90.90;;;;;;5030860;28;20631;-62